createdAt,value
2018-06-17T00:00:48.371Z,11.50
2018-06-17T00:03:16.553Z,11.77
2018-06-17T00:05:45.118Z,11.40
2018-06-17T00:08:13.338Z,11.53
2018-06-17T00:10:41.563Z,11.93
2018-06-17T00:13:10.098Z,12.40
2018-06-17T00:15:38.871Z,12.30
2018-06-17T00:18:08.138Z,11.70
2018-06-17T00:20:36.636Z,11.70
2018-06-17T00:23:04.867Z,12.80
2018-06-17T00:25:33.406Z,12.90
2018-06-17T00:28:02.065Z,12.63
2018-06-17T00:30:30.903Z,11.13
2018-06-17T00:32:59.438Z,12.00
2018-06-17T00:35:27.991Z,12.27
2018-06-17T00:37:56.519Z,11.60
2018-06-17T00:40:25.145Z,12.17
2018-06-17T00:42:53.358Z,11.47
2018-06-17T00:45:21.639Z,11.03
2018-06-17T00:47:50.030Z,11.20
2018-06-17T00:50:18.500Z,11.53
2018-06-17T00:52:47.142Z,11.20
2018-06-17T00:55:15.461Z,10.60
2018-06-17T00:57:48.095Z,10.93
2018-06-17T01:00:16.411Z,11.03
2018-06-17T01:02:45.875Z,11.23
2018-06-17T01:05:14.668Z,11.53
2018-06-17T01:07:43.357Z,10.60
2018-06-17T01:10:11.934Z,10.40
2018-06-17T01:12:40.510Z,11.47
2018-06-17T01:15:08.928Z,11.23
2018-06-17T01:17:37.574Z,11.03
2018-06-17T01:20:06.319Z,11.57
2018-06-17T01:22:35.164Z,11.67
2018-06-17T01:25:03.365Z,11.10
2018-06-17T01:27:31.634Z,11.67
2018-06-17T01:30:00.250Z,11.27
2018-06-17T01:32:28.947Z,11.37
2018-06-17T01:34:57.792Z,11.47
2018-06-17T01:37:27.444Z,11.37
2018-06-17T01:39:55.678Z,11.27
2018-06-17T01:42:24.343Z,11.57
2018-06-17T01:44:53.592Z,11.77
2018-06-17T01:47:22.162Z,12.43
2018-06-17T01:49:50.731Z,11.80
2018-06-17T01:52:18.997Z,11.63
2018-06-17T01:54:47.277Z,11.33
2018-06-17T01:57:15.580Z,12.00
2018-06-17T01:59:43.814Z,12.63
2018-06-17T02:02:12.211Z,11.77
2018-06-17T02:04:45.882Z,11.83
2018-06-17T02:07:20.128Z,12.23
2018-06-17T02:09:53.715Z,11.63
2018-06-17T02:12:21.975Z,11.50
2018-06-17T02:14:56.924Z,11.50
2018-06-17T02:17:26.463Z,11.47
2018-06-17T02:19:55.730Z,11.87
2018-06-17T02:22:24.979Z,11.80
2018-06-17T02:24:53.238Z,11.03
2018-06-17T02:27:22.014Z,12.10
2018-06-17T02:29:50.542Z,12.30
2018-06-17T02:32:19.287Z,12.00
2018-06-17T02:34:47.512Z,12.20
2018-06-17T02:37:16.554Z,12.83
2018-06-17T02:39:44.819Z,12.87
2018-06-17T02:42:13.058Z,12.53
2018-06-17T02:44:41.699Z,12.73
2018-06-17T02:47:15.426Z,12.20
2018-06-17T02:49:45.950Z,13.20
2018-06-17T02:52:20.095Z,13.33
2018-06-17T02:54:48.813Z,12.67
2018-06-17T02:57:18.638Z,13.27
2018-06-17T02:59:47.064Z,13.43
2018-06-17T03:02:16.002Z,12.37
2018-06-17T03:04:44.518Z,12.53
2018-06-17T03:07:13.375Z,12.73
2018-06-17T03:09:42.019Z,11.93
2018-06-17T03:12:10.674Z,13.07
2018-06-17T03:14:38.917Z,12.93
2018-06-17T03:17:07.449Z,13.27
2018-06-17T03:19:35.946Z,13.90
2018-06-17T03:22:04.182Z,13.07
2018-06-17T03:24:38.244Z,13.03
2018-06-17T03:27:11.794Z,13.57
2018-06-17T03:29:51.663Z,13.77
2018-06-17T03:32:25.264Z,13.47
2018-06-17T03:34:59.082Z,13.87
2018-06-17T03:37:27.694Z,14.13
2018-06-17T03:39:56.157Z,13.10
2018-06-17T03:42:24.443Z,13.43
2018-06-17T03:44:53.305Z,14.23
2018-06-17T03:47:21.583Z,14.67
2018-06-17T03:49:49.819Z,14.17
2018-06-17T03:52:18.422Z,14.60
2018-06-17T03:54:47.067Z,14.73
2018-06-17T03:57:15.923Z,14.27
2018-06-17T03:59:44.195Z,14.10
2018-06-17T04:02:12.851Z,13.30
2018-06-17T04:04:46.571Z,13.93
2018-06-17T04:07:15.190Z,14.77
2018-06-17T04:09:43.793Z,14.60
2018-06-17T04:12:12.407Z,14.07
2018-06-17T04:14:40.770Z,14.13
2018-06-17T04:17:15.296Z,13.97
2018-06-17T04:19:45.527Z,14.17
2018-06-17T04:22:14.104Z,14.83
2018-06-17T04:24:42.368Z,15.83
2018-06-17T04:27:10.962Z,15.40
2018-06-17T04:29:39.252Z,13.80
2018-06-17T04:32:07.868Z,14.87
2018-06-17T04:34:36.406Z,15.23
2018-06-17T04:37:05.154Z,15.07
2018-06-17T04:39:33.435Z,14.20
2018-06-17T04:42:02.102Z,15.43
2018-06-17T04:44:30.469Z,15.37
2018-06-17T04:46:59.270Z,14.03
2018-06-17T04:49:27.579Z,14.63
2018-06-17T04:51:56.634Z,14.77
2018-06-17T04:54:25.297Z,14.87
2018-06-17T04:56:53.967Z,14.50
2018-06-17T04:59:22.727Z,15.13
2018-06-17T05:01:51.082Z,14.33
2018-06-17T05:04:19.325Z,14.37
2018-06-17T05:06:47.599Z,14.87
2018-06-17T05:09:16.388Z,14.83
2018-06-17T05:11:44.665Z,14.50
2018-06-17T05:14:12.915Z,14.37
2018-06-17T05:16:41.290Z,15.67
2018-06-17T05:19:10.035Z,15.07
2018-06-17T05:21:38.431Z,15.20
2018-06-17T05:24:06.699Z,15.27
2018-06-17T05:26:35.039Z,14.67
2018-06-17T05:29:04.230Z,14.90
2018-06-17T05:31:32.852Z,15.13
2018-06-17T05:34:01.525Z,14.87
2018-06-17T05:36:29.822Z,15.50
2018-06-17T05:38:58.323Z,14.77
2018-06-17T05:41:26.670Z,14.73
2018-06-17T05:43:55.262Z,14.93
2018-06-17T05:46:23.830Z,16.50
2018-06-17T05:48:52.067Z,14.93
2018-06-17T05:51:20.383Z,15.80
2018-06-17T05:53:48.705Z,15.27
2018-06-17T05:56:17.409Z,15.93
2018-06-17T05:58:45.653Z,16.10
2018-06-17T06:01:13.950Z,15.23
2018-06-17T06:03:42.270Z,14.93
2018-06-17T06:06:10.284Z,15.90
2018-06-17T06:08:38.589Z,15.30
2018-06-17T06:11:06.873Z,16.03
2018-06-17T06:13:35.084Z,15.97
2018-06-17T06:16:03.727Z,15.27
2018-06-17T06:18:32.155Z,15.10
2018-06-17T06:21:00.762Z,15.57
2018-06-17T06:23:29.583Z,15.63
2018-06-17T06:25:58.783Z,16.00
2018-06-17T06:28:27.646Z,16.07
2018-06-17T06:30:56.899Z,16.17
2018-06-17T06:33:25.155Z,14.93
2018-06-17T06:35:54.066Z,14.70
2018-06-17T06:38:22.346Z,15.57
2018-06-17T06:40:50.931Z,15.23
2018-06-17T06:43:19.839Z,15.23
2018-06-17T06:45:48.080Z,15.97
2018-06-17T06:48:16.650Z,19.00
2018-06-17T06:50:45.128Z,16.23
2018-06-17T06:53:13.360Z,15.87
2018-06-17T06:55:41.957Z,15.53
2018-06-17T06:58:10.222Z,15.80
2018-06-17T07:00:38.762Z,16.93
2018-06-17T07:03:18.483Z,15.07
2018-06-17T07:05:58.118Z,15.73
2018-06-17T07:08:37.862Z,15.70
2018-06-17T07:11:06.493Z,15.87
2018-06-17T07:13:35.084Z,15.60
2018-06-17T07:16:14.777Z,16.93
2018-06-17T07:18:42.989Z,16.23
2018-06-17T07:21:11.430Z,16.60
2018-06-17T07:23:39.995Z,16.13
2018-06-17T07:26:32.111Z,15.53
2018-06-17T07:29:12.256Z,16.13
2018-06-17T07:31:40.275Z,16.23
2018-06-17T07:34:09.414Z,15.67
2018-06-17T07:36:38.103Z,16.53
2018-06-17T07:39:16.418Z,17.77
2018-06-17T07:41:45.967Z,14.63
2018-06-17T07:44:14.495Z,14.80
2018-06-17T07:46:43.305Z,14.40
2018-06-17T07:49:36.817Z,14.03
2018-06-17T07:52:17.669Z,14.43
2018-06-17T07:54:46.571Z,12.97
2018-06-17T07:57:16.366Z,13.87
2018-06-17T07:59:45.018Z,14.23
2018-06-17T08:02:14.158Z,13.80
2018-06-17T08:04:42.427Z,13.70
2018-06-17T08:07:11.071Z,14.27
2018-06-17T08:09:39.599Z,14.30
2018-06-17T08:12:09.678Z,13.53
2018-06-17T08:14:37.980Z,12.53
2018-06-17T08:17:06.784Z,12.97
2018-06-17T08:19:35.063Z,12.07
2018-06-17T08:22:03.718Z,12.50
2018-06-17T08:24:32.706Z,13.53
2018-06-17T08:27:01.330Z,13.23
2018-06-17T08:29:30.116Z,12.60
2018-06-17T08:31:58.438Z,13.10
2018-06-17T08:34:27.030Z,13.23
2018-06-17T08:36:55.575Z,12.33
2018-06-17T08:39:24.691Z,13.87
2018-06-17T08:41:52.967Z,13.10
2018-06-17T08:44:22.028Z,13.50
2018-06-17T08:46:51.161Z,13.17
2018-06-17T08:49:20.270Z,12.17
2018-06-17T08:51:49.105Z,16.10
2018-06-17T08:54:17.678Z,12.60
2018-06-17T08:56:45.870Z,11.83
2018-06-17T08:59:14.056Z,11.30
2018-06-17T09:01:43.136Z,12.07
2018-06-17T09:04:12.016Z,11.23
2018-06-17T09:06:41.746Z,11.27
2018-06-17T09:09:11.407Z,11.67
2018-06-17T09:11:39.709Z,11.27
2018-06-17T09:14:07.970Z,11.70
2018-06-17T09:16:37.160Z,12.10
2018-06-17T09:19:05.460Z,11.60
2018-06-17T09:21:33.755Z,10.93
2018-06-17T09:24:02.156Z,11.60
2018-06-17T09:26:30.373Z,11.03
2018-06-17T09:28:58.943Z,22.43
2018-06-17T09:31:27.181Z,11.67
2018-06-17T09:33:55.462Z,10.70
2018-06-17T09:36:23.697Z,10.90
2018-06-17T09:38:51.709Z,13.30
2018-06-17T09:41:19.974Z,11.63
2018-06-17T09:43:48.211Z,10.97
2018-06-17T09:46:16.550Z,11.20
2018-06-17T09:48:44.790Z,10.50
2018-06-17T09:51:13.026Z,11.33
2018-06-17T09:53:41.062Z,10.73
2018-06-17T09:56:09.327Z,10.53
2018-06-17T09:58:37.618Z,8.90
2018-06-17T10:01:06.117Z,8.20
2018-06-17T10:03:34.611Z,8.50
2018-06-17T10:06:03.251Z,8.57
2018-06-17T10:08:32.144Z,8.80
2018-06-17T10:11:04.432Z,8.95
2018-06-17T10:13:35.203Z,9.88
2018-06-17T10:16:03.558Z,8.08
2018-06-17T10:18:32.414Z,8.38
2018-06-17T10:21:00.976Z,8.60
2018-06-17T10:23:29.235Z,7.97
2018-06-17T10:25:57.582Z,7.20
2018-06-17T10:28:27.018Z,6.92
2018-06-17T10:30:56.410Z,7.78
2018-06-17T10:33:24.686Z,7.87
2018-06-17T10:35:53.541Z,8.33
2018-06-17T10:38:22.000Z,10.13
2018-06-17T10:40:50.310Z,9.57
2018-06-17T10:43:22.499Z,9.47
2018-06-17T10:45:50.935Z,9.37
2018-06-17T10:48:19.191Z,9.70
2018-06-17T10:50:47.416Z,9.80
2018-06-17T10:53:15.743Z,9.53
2018-06-17T10:55:44.057Z,9.43
2018-06-17T10:58:12.359Z,9.57
2018-06-17T11:00:40.770Z,9.43
2018-06-17T11:03:09.398Z,9.70
2018-06-17T11:05:37.808Z,10.33
2018-06-17T11:08:06.137Z,9.90
2018-06-17T11:10:34.426Z,10.00
2018-06-17T11:13:03.130Z,9.57
2018-06-17T11:15:31.342Z,10.23
2018-06-17T11:17:59.615Z,9.17
2018-06-17T11:20:28.314Z,9.37
2018-06-17T11:22:56.556Z,9.60
2018-06-17T11:25:24.781Z,9.77
2018-06-17T11:27:53.118Z,10.67
2018-06-17T11:30:21.391Z,8.83
2018-06-17T11:32:50.222Z,8.77
2018-06-17T11:35:18.433Z,10.43
2018-06-17T11:37:46.744Z,10.30
2018-06-17T11:40:14.998Z,9.57
2018-06-17T11:42:43.382Z,9.80
2018-06-17T11:45:11.720Z,10.47
2018-06-17T11:47:40.043Z,10.03
2018-06-17T11:50:08.381Z,10.10
2018-06-17T11:52:36.654Z,10.30
2018-06-17T11:55:05.271Z,11.27
2018-06-17T11:57:33.554Z,10.87
2018-06-17T12:00:01.836Z,9.73
2018-06-17T12:02:30.434Z,9.30
2018-06-17T12:04:59.534Z,10.77
2018-06-17T12:07:27.947Z,10.40
2018-06-17T12:09:56.262Z,9.87
2018-06-17T12:12:25.710Z,10.03
2018-06-17T12:14:54.482Z,9.63
2018-06-17T12:17:22.899Z,7.80
2018-06-17T12:19:51.546Z,9.30
2018-06-17T12:22:21.051Z,7.57
2018-06-17T12:24:49.783Z,7.62
2018-06-17T12:27:18.185Z,8.03
2018-06-17T12:29:46.425Z,8.33
2018-06-17T12:32:15.458Z,8.20
2018-06-17T12:34:43.859Z,8.23
2018-06-17T12:37:12.622Z,8.13
2018-06-17T12:39:40.897Z,9.03
2018-06-17T12:42:09.628Z,9.03
2018-06-17T12:44:37.896Z,8.70
2018-06-17T12:47:06.414Z,8.37
2018-06-17T12:49:34.719Z,8.43
2018-06-17T12:52:03.426Z,10.50
2018-06-17T12:54:32.498Z,9.80
2018-06-17T12:57:01.141Z,8.67
2018-06-17T12:59:29.731Z,8.97
2018-06-17T13:01:58.680Z,9.30
2018-06-17T13:04:27.700Z,8.90
2018-06-17T13:06:55.945Z,9.13
2018-06-17T13:09:24.887Z,8.63
2018-06-17T13:11:53.130Z,9.10
2018-06-17T13:14:21.522Z,8.83
2018-06-17T13:16:50.111Z,9.07
2018-06-17T13:19:18.811Z,8.10
2018-06-17T13:21:47.476Z,9.03
2018-06-17T13:24:16.723Z,8.10
2018-06-17T13:26:44.962Z,8.67
2018-06-17T13:29:13.311Z,11.10
2018-06-17T13:31:42.028Z,10.73
2018-06-17T13:34:10.322Z,9.30
2018-06-17T13:36:38.882Z,8.00
2018-06-17T13:39:07.198Z,8.43
2018-06-17T13:41:35.586Z,7.93
2018-06-17T13:44:04.723Z,8.00
2018-06-17T13:46:33.207Z,7.30
2018-06-17T13:49:03.070Z,7.93
2018-06-17T13:51:31.805Z,7.60
2018-06-17T13:54:00.512Z,8.47
2018-06-17T13:56:28.822Z,8.90
2018-06-17T13:58:57.062Z,8.33
2018-06-17T14:01:26.196Z,9.10
2018-06-17T14:03:55.942Z,7.70
2018-06-17T14:06:24.370Z,8.53
2018-06-17T14:11:34.070Z,8.07
2018-06-17T14:14:02.317Z,8.53
2018-06-17T14:16:30.550Z,8.20
2018-06-17T14:18:59.234Z,8.43
2018-06-17T14:21:27.703Z,7.97
2018-06-17T14:23:56.022Z,7.87
2018-06-17T14:26:24.655Z,7.73
2018-06-17T14:28:53.804Z,8.37
2018-06-17T14:31:22.497Z,8.10
2018-06-17T14:33:51.506Z,9.30
2018-06-17T14:36:19.760Z,9.33
2018-06-17T14:38:48.801Z,8.40
2018-06-17T14:41:18.256Z,7.70
2018-06-17T14:43:52.053Z,8.13
2018-06-17T14:46:26.183Z,8.83
2018-06-17T14:49:00.051Z,9.50
2018-06-17T14:51:33.583Z,9.20
2018-06-17T14:54:02.175Z,11.03
2018-06-17T14:56:30.490Z,8.57
2018-06-17T14:58:59.711Z,8.00
2018-06-17T15:01:28.469Z,8.27
2018-06-17T15:03:56.739Z,8.10
2018-06-17T15:06:25.766Z,8.23
2018-06-17T15:08:56.727Z,6.97
2018-06-17T15:11:25.014Z,7.00
2018-06-17T15:13:53.295Z,7.63
2018-06-17T15:16:23.026Z,8.17
2018-06-17T15:18:52.519Z,7.00
2018-06-17T15:21:23.047Z,6.60
2018-06-17T15:23:52.653Z,7.50
2018-06-17T15:26:22.547Z,9.53
2018-06-17T15:28:52.810Z,9.37
2018-06-17T15:31:30.891Z,7.70
2018-06-17T15:34:04.914Z,7.17
2018-06-17T15:36:40.377Z,6.83
2018-06-17T15:39:14.263Z,7.20
2018-06-17T15:41:42.550Z,7.03
2018-06-17T15:44:12.435Z,8.03
2018-06-17T15:46:51.096Z,6.97
2018-06-17T15:49:19.963Z,7.50
2018-06-17T15:51:49.196Z,6.37
2018-06-17T15:54:18.869Z,6.80
2018-06-17T15:56:48.059Z,8.40
2018-06-17T15:59:16.959Z,7.90
2018-06-17T16:01:45.167Z,7.50
2018-06-17T16:04:14.185Z,7.50
2018-06-17T16:06:46.248Z,8.50
2018-06-17T16:09:15.279Z,8.33
2018-06-17T16:11:48.957Z,7.97
2018-06-17T16:15:23.360Z,8.60
2018-06-17T16:17:57.055Z,8.00
2018-06-17T16:20:31.276Z,8.30
2018-06-17T16:23:00.214Z,12.97
2018-06-17T16:25:28.606Z,8.40
2018-06-17T16:27:56.810Z,8.53
2018-06-17T16:30:25.091Z,8.57
2018-06-17T16:32:53.668Z,9.43
2018-06-17T16:35:22.445Z,8.33
2018-06-17T16:37:50.745Z,14.47
2018-06-17T16:40:19.425Z,14.30
2018-06-17T16:42:49.001Z,9.90
2018-06-17T16:45:17.560Z,9.07
2018-06-17T16:47:45.846Z,8.97
2018-06-17T16:50:14.936Z,9.27
2018-06-17T16:52:48.594Z,9.10
2018-06-17T16:55:22.810Z,8.50
2018-06-17T16:57:56.629Z,8.67
2018-06-17T17:00:24.978Z,8.97
2018-06-17T17:02:53.230Z,9.37
2018-06-17T17:05:21.851Z,9.70
2018-06-17T17:07:50.194Z,8.67
2018-06-17T17:10:19.958Z,8.67
2018-06-17T17:12:48.318Z,9.10
2018-06-17T17:15:17.966Z,8.70
2018-06-17T17:17:47.400Z,10.10
2018-06-17T17:20:15.541Z,12.67
2018-06-17T17:22:44.111Z,11.10
2018-06-17T17:25:12.367Z,8.70
2018-06-17T17:27:40.713Z,14.93
2018-06-17T17:30:09.186Z,10.23
2018-06-17T17:32:42.838Z,16.77
2018-06-17T17:35:16.940Z,13.30
2018-06-17T17:37:50.802Z,9.67
2018-06-17T17:40:25.120Z,9.37
2018-06-17T17:42:53.398Z,8.77
2018-06-17T17:45:23.511Z,8.03
2018-06-17T17:47:52.245Z,12.00
2018-06-17T17:50:20.538Z,10.20
2018-06-17T17:52:48.826Z,10.13
2018-06-17T17:55:17.602Z,10.20
2018-06-17T17:57:45.887Z,10.10
2018-06-17T18:00:15.382Z,8.97
2018-06-17T18:02:43.810Z,8.93
2018-06-17T18:05:12.056Z,11.83
2018-06-17T18:07:40.295Z,14.47
2018-06-17T18:10:08.910Z,17.87
2018-06-17T18:12:37.170Z,15.57
2018-06-17T18:15:06.636Z,16.90
2018-06-17T18:17:35.323Z,15.70
2018-06-17T18:20:03.583Z,14.93
2018-06-17T18:22:32.122Z,12.83
2018-06-17T18:25:05.859Z,15.13
2018-06-17T18:27:39.908Z,15.20
2018-06-17T18:30:13.555Z,15.10
2018-06-17T18:32:47.136Z,14.73
2018-06-17T18:35:20.755Z,15.67
2018-06-17T18:37:48.989Z,14.83
2018-06-17T18:40:17.945Z,15.27
2018-06-17T18:42:46.562Z,14.97
2018-06-17T18:45:15.225Z,15.50
2018-06-17T18:47:43.770Z,15.63
2018-06-17T18:50:12.084Z,14.73
2018-06-17T18:52:40.650Z,13.93
2018-06-17T18:55:22.872Z,15.93
2018-06-17T18:57:51.100Z,15.43
2018-06-17T19:00:19.323Z,15.27
2018-06-17T19:02:47.751Z,14.70
2018-06-17T19:05:16.077Z,15.20
2018-06-17T19:07:52.569Z,15.90
2018-06-17T19:10:26.420Z,14.70
2018-06-17T19:13:00.098Z,15.93
2018-06-17T19:15:35.722Z,15.37
2018-06-17T19:18:08.339Z,15.63
2018-06-17T19:20:37.186Z,15.97
2018-06-17T19:23:06.080Z,15.03
2018-06-17T19:25:34.315Z,16.00
2018-06-17T19:28:02.585Z,15.27
2018-06-17T19:30:30.821Z,14.93
2018-06-17T19:32:59.082Z,14.73
2018-06-17T19:35:27.494Z,14.90
2018-06-17T19:37:55.813Z,16.00
2018-06-17T19:40:24.014Z,14.07
2018-06-17T19:42:52.686Z,14.33
2018-06-17T19:45:21.179Z,13.30
2018-06-17T19:47:49.540Z,12.80
2018-06-17T19:50:23.522Z,13.03
2018-06-17T19:54:00.154Z,12.70
2018-06-17T19:56:33.956Z,13.00
2018-06-17T19:59:08.596Z,13.63
2018-06-17T20:01:37.277Z,12.07
2018-06-17T20:04:05.585Z,11.47
2018-06-17T20:06:34.251Z,11.53
2018-06-17T20:09:02.579Z,12.73
2018-06-17T20:11:31.263Z,12.20
2018-06-17T20:13:59.537Z,12.70
2018-06-17T20:16:28.259Z,13.37
2018-06-17T20:18:57.375Z,12.83
2018-06-17T20:21:25.357Z,13.23
2018-06-17T20:23:54.251Z,12.63
2018-06-17T20:26:22.844Z,12.70
2018-06-17T20:28:51.771Z,14.47
2018-06-17T20:31:20.345Z,13.03
2018-06-17T20:33:54.122Z,13.60
2018-06-17T20:36:27.919Z,11.40
2018-06-17T20:39:01.632Z,12.17
2018-06-17T20:41:35.523Z,12.83
2018-06-17T20:44:03.759Z,13.77
2018-06-17T20:46:32.315Z,14.97
2018-06-17T20:49:00.845Z,14.83
2018-06-17T20:51:29.088Z,13.97
2018-06-17T20:53:57.626Z,14.07
2018-06-17T20:56:26.493Z,12.97
2018-06-17T20:58:55.044Z,14.47
2018-06-17T21:01:23.567Z,14.53
2018-06-17T21:03:51.558Z,13.60
2018-06-17T21:06:20.135Z,15.03
2018-06-17T21:08:48.351Z,14.77
2018-06-17T21:11:16.566Z,15.07
2018-06-17T21:13:44.787Z,15.83
2018-06-17T21:16:13.370Z,15.17
2018-06-17T21:18:47.405Z,15.10
2018-06-17T21:21:21.096Z,15.33
2018-06-17T21:23:54.698Z,15.43
2018-06-17T21:26:28.361Z,16.53
2018-06-17T21:28:56.592Z,14.60
2018-06-17T21:31:25.122Z,16.07
2018-06-17T21:33:53.320Z,15.33
2018-06-17T21:36:21.574Z,15.43
2018-06-17T21:38:49.773Z,16.13
2018-06-17T21:41:18.327Z,15.87
2018-06-17T21:43:46.554Z,17.30
2018-06-17T21:46:15.077Z,15.23
2018-06-17T21:48:43.450Z,15.87
2018-06-17T21:51:11.450Z,16.50
2018-06-17T21:53:39.923Z,16.37
2018-06-17T21:56:08.213Z,16.57
2018-06-17T21:58:41.943Z,17.70
2018-06-17T22:01:10.463Z,17.97
2018-06-17T22:03:39.263Z,17.93
2018-06-17T22:06:07.910Z,18.43
2018-06-17T22:08:42.276Z,19.37
2018-06-17T22:11:16.378Z,19.83
2018-06-17T22:13:49.974Z,19.23
2018-06-17T22:16:23.639Z,19.13
2018-06-17T22:18:51.813Z,20.03
2018-06-17T22:21:20.051Z,21.30
2018-06-17T22:23:48.264Z,20.40
2018-06-17T22:26:16.683Z,20.27
2018-06-17T22:28:45.267Z,22.60
2018-06-17T22:31:13.637Z,21.17
2018-06-17T22:33:42.066Z,20.80
2018-06-17T22:36:10.246Z,21.20
2018-06-17T22:38:38.792Z,21.97
2018-06-17T22:41:06.980Z,21.20
2018-06-17T22:43:35.178Z,21.10
2018-06-17T22:46:05.166Z,20.90
2018-06-17T22:48:33.472Z,20.67
2018-06-17T22:51:01.661Z,22.07
2018-06-17T22:53:41.360Z,21.07
2018-06-17T22:56:15.594Z,21.23
2018-06-17T22:58:49.115Z,21.93
2018-06-17T23:01:22.733Z,21.67
2018-06-17T23:03:56.290Z,21.63
2018-06-17T23:06:29.819Z,20.43
2018-06-17T23:09:03.360Z,20.57
2018-06-17T23:11:32.602Z,20.70
2018-06-17T23:14:00.906Z,21.63
2018-06-17T23:16:29.732Z,22.90
2018-06-17T23:18:57.974Z,21.10
2018-06-17T23:21:26.234Z,22.10
2018-06-17T23:23:54.763Z,23.23
2018-06-17T23:26:22.987Z,22.40
2018-06-17T23:28:51.234Z,22.17
2018-06-17T23:31:19.472Z,21.50
2018-06-17T23:33:48.018Z,21.13
2018-06-17T23:36:16.202Z,22.20
2018-06-17T23:38:44.429Z,22.13
2018-06-17T23:41:15.561Z,20.93
2018-06-17T23:43:44.728Z,22.43
2018-06-17T23:46:18.133Z,21.77
2018-06-17T23:48:51.721Z,22.13
2018-06-17T23:51:25.390Z,23.17
2018-06-17T23:53:59.197Z,22.20
2018-06-17T23:56:27.386Z,22.07
2018-06-17T23:58:55.934Z,22.17
